createdAt,value
2023-04-24T00:00:17.034Z,11.38
2023-04-24T00:05:19.914Z,11.16
2023-04-24T00:10:22.955Z,11.28
2023-04-24T00:15:27.116Z,11.29
2023-04-24T00:20:30.378Z,11.27
2023-04-24T00:25:33.100Z,11.19
2023-04-24T00:30:37.231Z,11.19
2023-04-24T00:35:39.930Z,11.14
2023-04-24T00:40:42.625Z,11.18
2023-04-24T00:45:46.767Z,11.13
2023-04-24T00:50:49.456Z,10.96
2023-04-24T00:55:52.674Z,10.82
2023-04-24T01:00:58.593Z,10.83
2023-04-24T01:06:01.815Z,10.69
2023-04-24T01:11:06.561Z,10.56
2023-04-24T01:16:10.945Z,10.63
2023-04-24T01:21:15.763Z,10.50
2023-04-24T01:26:21.081Z,10.41
2023-04-24T01:31:24.328Z,10.39
2023-04-24T01:36:29.189Z,10.38
2023-04-24T01:41:33.698Z,10.33
2023-04-24T01:46:36.829Z,10.25
2023-04-24T01:51:40.770Z,10.28
2023-04-24T01:56:45.359Z,10.25
2023-04-24T02:01:48.161Z,10.27
2023-04-24T02:06:50.922Z,10.24
2023-04-24T02:11:54.973Z,10.12
2023-04-24T02:16:57.812Z,10.11
2023-04-24T02:22:00.513Z,10.14
2023-04-24T02:27:05.421Z,10.13
2023-04-24T02:32:08.178Z,10.17
2023-04-24T02:37:10.895Z,10.20
2023-04-24T02:42:14.927Z,10.26
2023-04-24T02:47:17.628Z,10.32
2023-04-24T02:52:20.289Z,10.22
2023-04-24T02:57:24.305Z,10.23
2023-04-24T03:02:27.315Z,10.29
2023-04-24T03:07:30.647Z,10.30
2023-04-24T03:12:34.697Z,10.30
2023-04-24T03:17:37.955Z,10.29
2023-04-24T03:22:40.784Z,10.26
2023-04-24T03:27:45.877Z,10.31
2023-04-24T03:32:57.393Z,10.25
2023-04-24T03:38:05.594Z,10.12
2023-04-24T03:43:28.365Z,10.19
2023-04-24T03:48:33.667Z,10.18
2023-04-24T03:53:37.949Z,10.16
2023-04-24T03:58:42.331Z,10.06
2023-04-24T04:03:46.329Z,10.11
2023-04-24T04:08:50.327Z,9.98
2023-04-24T04:13:54.432Z,9.97
2023-04-24T04:18:58.703Z,9.87
2023-04-24T04:24:01.745Z,9.64
2023-04-24T04:29:14.018Z,9.56
2023-04-24T04:34:20.489Z,9.52
2023-04-24T04:39:23.428Z,9.36
2023-04-24T04:44:36.744Z,9.42
2023-04-24T04:49:40.927Z,9.40
2023-04-24T04:54:50.949Z,9.50
2023-04-24T04:59:55.901Z,9.36
2023-04-24T05:05:12.548Z,9.34
2023-04-24T05:10:15.671Z,9.54
2023-04-24T05:15:20.019Z,9.50
2023-04-24T05:20:22.945Z,9.61
2023-04-24T05:25:25.964Z,9.49
2023-04-24T05:30:34.424Z,9.84
2023-04-24T05:35:37.658Z,9.85
2023-04-24T05:40:40.632Z,9.84
2023-04-24T05:45:44.579Z,9.74
2023-04-24T05:50:48.901Z,9.73
2023-04-24T05:55:51.594Z,9.84
2023-04-24T06:00:56.133Z,9.95
2023-04-24T06:05:59.051Z,9.93
2023-04-24T06:11:04.401Z,9.96
2023-04-24T06:16:09.569Z,9.93
2023-04-24T06:21:15.460Z,10.08
2023-04-24T06:26:18.607Z,10.06
2023-04-24T06:31:22.826Z,10.13
2023-04-24T06:36:25.586Z,9.97
2023-04-24T06:41:28.251Z,9.90
2023-04-24T06:46:32.335Z,10.08
2023-04-24T06:51:35.045Z,10.08
2023-04-24T06:56:37.911Z,10.18
2023-04-24T07:01:41.906Z,10.15
2023-04-24T07:06:44.819Z,10.14
2023-04-24T07:11:48.087Z,10.31
2023-04-24T07:16:52.112Z,10.44
2023-04-24T07:21:56.051Z,10.49
2023-04-24T07:26:58.803Z,10.31
2023-04-24T07:32:04.231Z,11.04
2023-04-24T07:37:07.297Z,10.80
2023-04-24T07:42:09.982Z,10.65
2023-04-24T07:47:15.673Z,10.22
2023-04-24T07:52:18.312Z,10.17
2023-04-24T07:57:21.089Z,9.89
2023-04-24T08:02:27.597Z,10.08
2023-04-24T08:07:30.845Z,10.20
2023-04-24T08:12:33.580Z,10.30
2023-04-24T08:17:37.690Z,10.34
2023-04-24T08:22:40.347Z,10.32
2023-04-24T08:27:43.011Z,10.23
2023-04-24T08:32:47.080Z,10.39
2023-04-24T08:37:49.855Z,10.35
2023-04-24T08:42:56.056Z,10.20
2023-04-24T08:48:00.620Z,10.22
2023-04-24T08:53:05.155Z,10.61
2023-04-24T08:58:08.043Z,10.62
2023-04-24T09:03:12.182Z,10.37
2023-04-24T09:08:15.748Z,10.17
2023-04-24T09:13:18.463Z,10.36
2023-04-24T09:18:22.554Z,10.51
2023-04-24T09:23:25.280Z,10.76
2023-04-24T09:28:29.913Z,10.59
2023-04-24T09:33:34.000Z,10.46
2023-04-24T09:38:37.719Z,10.64
2023-04-24T09:43:40.574Z,10.16
2023-04-24T09:48:44.542Z,10.15
2023-04-24T09:53:48.135Z,9.68
2023-04-24T09:58:56.650Z,10.19
2023-04-24T10:04:00.675Z,10.06
2023-04-24T10:09:04.596Z,10.00
2023-04-24T10:14:07.740Z,9.40
2023-04-24T10:19:14.095Z,9.22
2023-04-24T10:24:17.849Z,9.28
2023-04-24T10:29:22.462Z,8.82
2023-04-24T10:34:26.870Z,9.21
2023-04-24T10:39:29.827Z,9.36
2023-04-24T10:44:38.570Z,9.71
2023-04-24T10:49:42.665Z,9.54
2023-04-24T10:54:47.446Z,9.21
2023-04-24T10:59:51.448Z,9.46
2023-04-24T11:04:56.274Z,9.53
2023-04-24T11:10:02.011Z,9.47
2023-04-24T11:15:05.334Z,9.38
2023-04-24T11:25:34.699Z,9.21
2023-04-24T11:30:37.524Z,8.76
2023-04-24T11:35:44.966Z,8.85
2023-04-24T11:40:48.596Z,8.84
2023-04-24T11:45:51.747Z,8.64
2023-04-24T11:50:56.001Z,8.53
2023-04-24T11:55:58.663Z,8.53
2023-04-24T12:01:02.179Z,8.68
2023-04-24T12:06:10.289Z,8.60
2023-04-24T12:11:13.518Z,8.61
2023-04-24T12:16:16.222Z,8.61
2023-04-24T12:21:27.426Z,8.28
2023-04-24T12:26:30.079Z,8.26
2023-04-24T12:31:33.352Z,8.22
2023-04-24T12:36:38.663Z,8.23
2023-04-24T12:41:52.433Z,8.36
2023-04-24T12:46:55.225Z,8.48
2023-04-24T12:51:59.283Z,8.53
2023-04-24T12:57:02.418Z,8.75
2023-04-24T13:02:05.203Z,8.75
2023-04-24T13:07:09.205Z,8.82
2023-04-24T13:12:12.482Z,8.75
2023-04-24T13:17:15.348Z,9.04
2023-04-24T13:22:20.481Z,9.19
2023-04-24T13:27:23.330Z,9.25
2023-04-24T13:32:26.286Z,9.27
2023-04-24T13:37:30.461Z,9.15
2023-04-24T13:42:33.230Z,9.12
2023-04-24T13:47:37.086Z,9.11
2023-04-24T13:52:41.601Z,8.82
2023-04-24T13:57:44.373Z,8.92
2023-04-24T14:02:47.279Z,8.80
2023-04-24T14:07:51.932Z,8.91
2023-04-24T14:12:54.804Z,9.08
2023-04-24T14:17:57.457Z,9.31
2023-04-24T14:23:01.523Z,9.33
2023-04-24T14:28:04.269Z,9.05
2023-04-24T14:33:06.994Z,9.42
2023-04-24T14:38:11.345Z,9.28
2023-04-24T14:43:14.001Z,9.12
2023-04-24T14:48:17.454Z,9.24
2023-04-24T14:53:21.609Z,8.92
2023-04-24T14:58:24.321Z,9.03
2023-04-24T15:03:28.046Z,8.97
2023-04-24T15:08:32.323Z,9.07
2023-04-24T15:13:35.068Z,8.90
2023-04-24T15:18:37.882Z,9.06
2023-04-24T15:23:42.088Z,8.92
2023-04-24T15:28:44.955Z,8.64
2023-04-24T15:33:47.959Z,8.67
2023-04-24T15:38:52.177Z,8.51
2023-04-24T15:43:54.924Z,8.64
2023-04-24T15:48:57.728Z,8.68
2023-04-24T15:54:01.854Z,8.68
2023-04-24T15:59:05.004Z,8.47
2023-04-24T16:04:08.145Z,8.63
2023-04-24T16:09:13.371Z,8.73
2023-04-24T16:14:16.035Z,8.64
2023-04-24T16:19:18.819Z,9.12
2023-04-24T16:24:23.837Z,8.90
2023-04-24T16:29:26.494Z,8.83
2023-04-24T16:34:29.287Z,8.91
2023-04-24T16:39:33.417Z,9.01
2023-04-24T16:44:36.451Z,9.17
2023-04-24T16:49:39.115Z,9.09
2023-04-24T16:54:43.187Z,9.22
2023-04-24T16:59:45.894Z,8.76
2023-04-24T17:04:48.649Z,8.35
2023-04-24T17:09:52.838Z,8.01
2023-04-24T17:14:55.931Z,8.11
2023-04-24T17:19:59.878Z,8.00
2023-04-24T17:25:06.260Z,8.02
2023-04-24T17:30:10.003Z,8.41
2023-04-24T17:35:12.980Z,8.64
2023-04-24T17:40:17.208Z,8.19
2023-04-24T17:45:19.908Z,8.04
2023-04-24T17:50:22.728Z,8.04
2023-04-24T17:55:26.865Z,8.04
2023-04-24T18:00:29.920Z,8.05
2023-04-24T18:05:33.982Z,8.08
2023-04-24T18:10:38.007Z,8.22
2023-04-24T18:15:43.089Z,8.20
2023-04-24T18:20:46.806Z,8.24
2023-04-24T18:25:50.844Z,8.27
2023-04-24T18:30:53.566Z,8.30
2023-04-24T18:35:58.239Z,8.19
2023-04-24T18:41:03.432Z,8.10
2023-04-24T18:46:06.108Z,8.16
2023-04-24T18:51:09.833Z,8.01
2023-04-24T18:56:14.034Z,7.94
2023-04-24T19:01:16.851Z,7.86
2023-04-24T19:06:19.693Z,7.71
2023-04-24T19:11:23.756Z,7.67
2023-04-24T19:16:26.503Z,7.55
2023-04-24T19:21:29.319Z,7.44
2023-04-24T19:26:33.300Z,7.43
2023-04-24T19:31:35.974Z,7.31
2023-04-24T19:36:38.888Z,7.22
2023-04-24T19:41:42.912Z,7.24
2023-04-24T19:46:45.645Z,7.23
2023-04-24T19:51:48.305Z,7.09
2023-04-24T19:56:52.712Z,6.98
2023-04-24T20:01:55.524Z,6.96
2023-04-24T20:06:58.390Z,6.92
2023-04-24T20:12:02.751Z,6.83
2023-04-24T20:17:05.394Z,6.82
2023-04-24T20:22:08.091Z,6.75
2023-04-24T20:27:13.072Z,6.66
2023-04-24T20:32:15.779Z,6.62
2023-04-24T20:37:18.489Z,6.59
2023-04-24T20:42:23.029Z,6.49
2023-04-24T20:47:25.775Z,6.44
2023-04-24T20:52:28.532Z,6.37
2023-04-24T20:57:32.587Z,6.45
2023-04-24T21:02:35.737Z,6.36
2023-04-24T21:07:38.558Z,6.39
2023-04-24T21:12:42.627Z,6.38
2023-04-24T21:17:45.655Z,6.23
2023-04-24T21:22:48.397Z,6.29
2023-04-24T21:27:52.406Z,6.28
2023-04-24T21:32:55.964Z,6.15
2023-04-24T21:37:58.686Z,6.12
2023-04-24T21:43:02.776Z,6.11
2023-04-24T21:48:06.024Z,6.04
2023-04-24T21:53:08.740Z,5.98
2023-04-24T21:58:12.818Z,5.88
2023-04-24T22:03:15.655Z,5.94
2023-04-24T22:08:18.544Z,5.79
2023-04-24T22:13:22.641Z,5.73
2023-04-24T22:18:33.354Z,5.70
2023-04-24T22:23:36.198Z,5.68
2023-04-24T22:28:40.337Z,5.68
2023-04-24T22:33:43.216Z,5.60
2023-04-24T22:38:45.958Z,5.69
2023-04-24T22:43:50.194Z,5.71
2023-04-24T22:48:53.123Z,5.61
2023-04-24T22:53:56.300Z,5.65
2023-04-24T22:59:00.278Z,5.67
2023-04-24T23:04:03.097Z,5.54
2023-04-24T23:09:05.805Z,5.59
2023-04-24T23:14:10.176Z,5.60
2023-04-24T23:19:12.888Z,5.65
2023-04-24T23:24:15.618Z,5.75
2023-04-24T23:29:22.995Z,5.76
2023-04-24T23:34:25.672Z,5.74
2023-04-24T23:39:28.502Z,5.76
2023-04-24T23:44:32.511Z,5.76
2023-04-24T23:49:36.290Z,5.78
2023-04-24T23:54:39.001Z,5.69
2023-04-24T23:59:42.980Z,5.68
